Pine Cliff, Utah
Current Conditions -  °F | °C
As of 12:53 PM on Friday 24 Oct 2014 (Local Time) from KEVW Reporting Station
Clear Clear  
Wind Chill: 19°   Ceiling: Unl
Heat Index: 19°   Visibility: 10mi
Dew Point: -3°   Wind: 21mph
Humidity: 21%   Direction: 240°WSW
Pressure: 30.29"   Gusts: 28mph
Location:  40.9431°N, 111.212°W
Report Text: KEVW 241853Z AUTO 24018G24KT 10SM CLR 19/M03 A3029 RMK AO2 SLP177 T01941033 TSNO
Loading
Personal Weather Stations






























Interactive Weather Map
Tropical Storm Tracking
New forecast layout! Learn more

10-Day Weather Forecast

Advertisements
Track Severe Weather on mobile